Time;durP1;ratioP1;P1;durP2;ratioP2;P2;SDS_P1;SDS_P2;PMS_P1;PMS_P2;Temp;Humidity;BMP_temperature;BMP_pressure;BME280_temperature;BME280_humidity;BME280_pressure;Samples;Min_cycle;Max_cycle;Signal;HPM_P1;HPM_P2
2023/12/22 00:02:40;;;;;;;3.58;1.20;;;;;;;;;;6214956;23;20004;-82
2023/12/22 00:05:26;;;;;;;6.35;2.08;;;;;;;;;;6213252;23;20050;-82
2023/12/22 00:08:11;;;;;;;4.78;1.17;;;;;;;;;;6214083;23;20004;-82
2023/12/22 00:10:56;;;;;;;4.28;1.60;;;;;;;;;;6213796;23;20012;-82
2023/12/22 00:13:41;;;;;;;3.28;1.38;;;;;;;;;;6213909;23;20170;-82
2023/12/22 00:16:27;;;;;;;6.68;1.73;;;;;;;;;;6214000;23;20073;-80
2023/12/22 00:19:12;;;;;;;4.72;1.20;;;;;;;;;;6215385;23;20008;-81
2023/12/22 00:21:58;;;;;;;6.88;2.08;;;;;;;;;;6216552;23;20429;-81
2023/12/22 00:24:43;;;;;;;10.13;1.95;;;;;;;;;;6216000;23;20496;-81
2023/12/22 00:27:28;;;;;;;8.82;1.77;;;;;;;;;;6216300;23;20383;-81
2023/12/22 00:30:14;;;;;;;6.65;1.60;;;;;;;;;;6215934;23;20344;-81
2023/12/22 00:32:59;;;;;;;7.70;2.13;;;;;;;;;;6216157;23;20054;-80
2023/12/22 00:35:44;;;;;;;5.05;1.50;;;;;;;;;;6216269;23;20007;-80
2023/12/22 00:38:30;;;;;;;8.02;2.22;;;;;;;;;;6216332;23;20046;-81
2023/12/22 00:41:16;;;;;;;9.68;2.17;;;;;;;;;;6195673;23;19996;-83
2023/12/22 00:44:01;;;;;;;11.77;2.35;;;;;;;;;;6216158;23;20015;-82
2023/12/22 00:46:46;;;;;;;5.00;1.40;;;;;;;;;;6216873;23;20031;-81
2023/12/22 00:49:32;;;;;;;5.80;2.08;;;;;;;;;;6216862;23;20027;-80
2023/12/22 00:52:17;;;;;;;6.85;1.55;;;;;;;;;;6216281;23;19996;-83
2023/12/22 00:55:02;;;;;;;3.25;1.73;;;;;;;;;;6216139;23;20076;-82
2023/12/22 00:57:48;;;;;;;3.83;1.50;;;;;;;;;;6215859;23;20000;-81
2023/12/22 01:00:33;;;;;;;6.57;1.50;;;;;;;;;;6215636;23;20467;-82
2023/12/22 01:03:18;;;;;;;5.85;1.30;;;;;;;;;;6215827;23;20012;-83
2023/12/22 01:06:03;;;;;;;3.55;1.20;;;;;;;;;;6215948;23;20075;-82
2023/12/22 01:08:49;;;;;;;4.80;1.70;;;;;;;;;;6236352;23;20014;-83
2023/12/22 01:11:35;;;;;;;6.30;1.48;;;;;;;;;;6214533;23;20035;-83
2023/12/22 01:14:20;;;;;;;3.55;1.20;;;;;;;;;;6215626;23;20088;-82
2023/12/22 01:17:05;;;;;;;5.57;1.30;;;;;;;;;;6215184;23;20046;-83
2023/12/22 01:19:51;;;;;;;4.05;1.65;;;;;;;;;;6216270;23;20000;-83
2023/12/22 01:22:38;;;;;;;4.18;1.35;;;;;;;;;;6215809;23;20046;-82
2023/12/22 01:25:23;;;;;;;5.82;1.40;;;;;;;;;;6214709;23;20047;-82
2023/12/22 01:28:08;;;;;;;8.93;3.53;;;;;;;;;;6215309;23;20031;-82
2023/12/22 01:30:54;;;;;;;4.25;1.38;;;;;;;;;;6214699;23;20341;-82
2023/12/22 01:33:39;;;;;;;6.55;1.30;;;;;;;;;;6215696;23;20359;-82
2023/12/22 01:36:24;;;;;;;5.07;2.10;;;;;;;;;;6236417;23;20429;-81
2023/12/22 01:39:09;;;;;;;3.95;1.67;;;;;;;;;;6215508;23;20011;-82
2023/12/22 01:41:54;;;;;;;3.83;1.60;;;;;;;;;;6214794;23;20468;-81
2023/12/22 01:44:39;;;;;;;4.45;1.48;;;;;;;;;;6215052;23;20015;-81
2023/12/22 01:47:25;;;;;;;6.63;1.35;;;;;;;;;;6215195;23;20332;-81
2023/12/22 01:50:11;;;;;;;4.18;1.10;;;;;;;;;;6214957;23;20007;-81
2023/12/22 01:52:56;;;;;;;5.90;1.30;;;;;;;;;;6215123;23;20035;-81
2023/12/22 01:55:41;;;;;;;6.43;1.30;;;;;;;;;;6193444;23;20495;-84
2023/12/22 01:58:27;;;;;;;5.13;1.13;;;;;;;;;;6215342;23;20438;-81
2023/12/22 02:01:13;;;;;;;2.58;1.30;;;;;;;;;;6215346;23;20001;-82
2023/12/22 02:03:58;;;;;;;3.75;1.00;;;;;;;;;;6215941;23;20087;-81
2023/12/22 02:06:44;;;;;;;3.33;1.05;;;;;;;;;;6215847;23;20519;-82
2023/12/22 02:09:29;;;;;;;1.98;0.90;;;;;;;;;;6215274;22;20032;-83
2023/12/22 02:12:14;;;;;;;2.80;0.95;;;;;;;;;;6214953;23;20533;-81
2023/12/22 02:14:59;;;;;;;1.30;0.88;;;;;;;;;;6214663;23;20377;-81
2023/12/22 02:17:57;;;;;;;2.58;1.13;;;;;;;;;;6214788;23;20004;-82
2023/12/22 02:20:44;;;;;;;3.17;1.08;;;;;;;;;;6215289;23;19996;-79
2023/12/22 02:23:29;;;;;;;6.30;1.20;;;;;;;;;;6212600;23;20074;-82
2023/12/22 02:26:24;;;;;;;2.53;1.20;;;;;;;;;;6235015;23;20022;-81
2023/12/22 02:29:10;;;;;;;2.67;0.73;;;;;;;;;;6214751;23;20091;-80
2023/12/22 02:31:57;;;;;;;2.00;0.90;;;;;;;;;;6214264;23;20046;-80
2023/12/22 02:34:43;;;;;;;6.22;1.20;;;;;;;;;;6214407;23;20047;-81
2023/12/22 02:37:29;;;;;;;3.70;1.00;;;;;;;;;;6211961;23;20011;-83
2023/12/22 02:40:14;;;;;;;8.15;1.52;;;;;;;;;;6214754;23;20001;-83
2023/12/22 02:43:01;;;;;;;3.30;1.10;;;;;;;;;;6213408;23;20004;-82
2023/12/22 02:45:49;;;;;;;5.25;1.58;;;;;;;;;;6193615;23;20138;-82
2023/12/22 02:48:35;;;;;;;3.63;1.25;;;;;;;;;;6215141;23;19992;-81
2023/12/22 02:51:20;;;;;;;3.95;1.00;;;;;;;;;;6214552;23;20004;-82
2023/12/22 02:54:05;;;;;;;3.17;1.10;;;;;;;;;;6235391;23;20000;-82
2023/12/22 02:56:50;;;;;;;5.07;1.60;;;;;;;;;;6214843;23;20000;-82
2023/12/22 02:59:36;;;;;;;4.38;1.20;;;;;;;;;;6214555;23;20589;-82
2023/12/22 03:02:21;;;;;;;6.75;1.77;;;;;;;;;;6215760;23;20372;-81
2023/12/22 03:05:07;;;;;;;6.97;2.53;;;;;;;;;;6218758;23;20413;-81
2023/12/22 03:07:52;;;;;;;5.47;1.25;;;;;;;;;;6239303;23;20102;-81
2023/12/22 03:10:37;;;;;;;6.50;1.40;;;;;;;;;;6218567;23;19996;-83
2023/12/22 03:13:22;;;;;;;5.32;1.20;;;;;;;;;;6217885;23;20386;-82
2023/12/22 03:16:08;;;;;;;3.97;1.20;;;;;;;;;;6218810;23;20032;-80
2023/12/22 03:18:53;;;;;;;6.75;1.50;;;;;;;;;;6219149;23;20000;-81
2023/12/22 03:21:38;;;;;;;5.72;1.58;;;;;;;;;;6218998;23;20277;-83
2023/12/22 03:24:24;;;;;;;2.20;1.20;;;;;;;;;;6218508;23;19992;-83
2023/12/22 03:27:09;;;;;;;3.95;1.23;;;;;;;;;;6218278;23;20376;-83
2023/12/22 03:29:54;;;;;;;4.57;1.98;;;;;;;;;;6217468;23;20326;-84
2023/12/22 03:32:39;;;;;;;4.60;1.42;;;;;;;;;;6218295;23;20000;-82
2023/12/22 03:35:25;;;;;;;7.05;1.75;;;;;;;;;;6218656;23;20036;-80
2023/12/22 03:38:11;;;;;;;6.00;1.73;;;;;;;;;;6218022;23;20064;-86
2023/12/22 03:40:56;;;;;;;7.35;1.67;;;;;;;;;;6218124;23;20004;-83
2023/12/22 03:43:41;;;;;;;2.05;1.23;;;;;;;;;;6218467;23;20018;-83
2023/12/22 03:49:36;;;;;;;4.15;1.15;;;;;;;;;;6217950;23;19996;-83
2023/12/22 03:52:21;;;;;;;3.03;1.38;;;;;;;;;;6217952;23;20067;-83
2023/12/22 03:55:07;;;;;;;4.28;1.27;;;;;;;;;;6218290;23;19996;-83
2023/12/22 03:57:52;;;;;;;5.22;1.65;;;;;;;;;;6217876;23;20004;-83
2023/12/22 04:00:37;;;;;;;4.07;1.40;;;;;;;;;;6217637;23;20022;-83
2023/12/22 04:03:22;;;;;;;5.10;1.40;;;;;;;;;;6215481;23;20083;-83
2023/12/22 04:06:08;;;;;;;9.25;1.63;;;;;;;;;;6215024;23;20026;-82
2023/12/22 04:08:53;;;;;;;4.30;1.50;;;;;;;;;;6213597;23;19992;-83
2023/12/22 04:11:39;;;;;;;5.78;1.63;;;;;;;;;;6213416;23;20000;-82
2023/12/22 04:14:25;;;;;;;8.52;1.77;;;;;;;;;;6213808;23;20000;-81
2023/12/22 04:17:10;;;;;;;10.80;2.15;;;;;;;;;;6193045;23;19992;-81
2023/12/22 04:19:55;;;;;;;4.30;1.38;;;;;;;;;;6213444;23;20000;-82
2023/12/22 04:22:40;;;;;;;6.32;2.25;;;;;;;;;;6213899;23;20016;-81
2023/12/22 04:25:26;;;;;;;5.10;2.33;;;;;;;;;;6213972;23;19993;-83
2023/12/22 04:28:11;;;;;;;6.43;1.50;;;;;;;;;;6214634;23;20090;-81
2023/12/22 04:30:56;;;;;;;8.93;2.13;;;;;;;;;;6210192;23;20000;-83
2023/12/22 04:33:41;;;;;;;5.82;1.73;;;;;;;;;;6212015;23;20447;-83
2023/12/22 04:36:26;;;;;;;6.07;1.60;;;;;;;;;;6211021;23;20004;-85
2023/12/22 04:39:12;;;;;;;7.22;2.22;;;;;;;;;;6208236;23;20179;-83
2023/12/22 04:41:57;;;;;;;6.25;1.85;;;;;;;;;;6205432;23;20004;-81
2023/12/22 04:44:42;;;;;;;6.10;1.30;;;;;;;;;;6205554;23;20452;-83
2023/12/22 04:47:28;;;;;;;3.65;1.65;;;;;;;;;;6209991;23;20338;-80
2023/12/22 04:50:13;;;;;;;7.82;1.40;;;;;;;;;;6210178;23;20008;-82
2023/12/22 04:52:59;;;;;;;2.92;1.30;;;;;;;;;;6206557;23;20000;-83
2023/12/22 04:55:44;;;;;;;5.45;1.30;;;;;;;;;;6231213;23;20000;-83
2023/12/22 04:58:29;;;;;;;5.03;1.45;;;;;;;;;;6212948;23;20087;-83
2023/12/22 05:01:14;;;;;;;4.22;1.00;;;;;;;;;;6210553;23;20005;-83
2023/12/22 05:03:59;;;;;;;6.22;0.93;;;;;;;;;;6212651;23;20026;-84
2023/12/22 05:06:45;;;;;;;6.00;1.20;;;;;;;;;;6207187;23;20194;-83
2023/12/22 05:09:30;;;;;;;4.50;1.35;;;;;;;;;;6210889;22;20445;-83
2023/12/22 05:12:15;;;;;;;4.63;1.50;;;;;;;;;;6209089;23;20030;-83
2023/12/22 05:15:00;;;;;;;2.90;1.42;;;;;;;;;;6208295;23;20093;-82
2023/12/22 05:17:46;;;;;;;6.75;1.60;;;;;;;;;;6208463;23;20000;-81
2023/12/22 05:20:31;;;;;;;6.28;2.10;;;;;;;;;;6214640;23;20318;-81
2023/12/22 05:23:16;;;;;;;6.10;1.83;;;;;;;;;;6210706;23;20008;-81
2023/12/22 05:26:01;;;;;;;5.13;1.90;;;;;;;;;;6212664;23;20046;-81
2023/12/22 05:28:46;;;;;;;4.13;1.33;;;;;;;;;;6214391;23;20368;-81
2023/12/22 05:31:32;;;;;;;11.38;3.33;;;;;;;;;;6214401;23;20095;-81
2023/12/22 05:34:17;;;;;;;7.07;2.30;;;;;;;;;;6214038;23;20000;-82
2023/12/22 05:37:03;;;;;;;9.63;1.88;;;;;;;;;;6214945;23;20000;-82
2023/12/22 05:39:48;;;;;;;8.57;1.85;;;;;;;;;;6208228;23;20356;-82
2023/12/22 05:42:33;;;;;;;9.30;2.53;;;;;;;;;;6211625;23;20820;-82
2023/12/22 05:45:19;;;;;;;11.30;2.78;;;;;;;;;;6211455;23;20028;-85
2023/12/22 05:48:04;;;;;;;12.10;2.42;;;;;;;;;;6209711;23;19996;-80
2023/12/22 05:50:49;;;;;;;11.30;2.13;;;;;;;;;;6208756;23;20050;-81
2023/12/22 05:53:35;;;;;;;6.30;2.30;;;;;;;;;;6231738;23;20002;-82
2023/12/22 05:56:20;;;;;;;10.65;2.92;;;;;;;;;;6213961;23;20007;-82
2023/12/22 05:59:06;;;;;;;11.10;3.97;;;;;;;;;;6215189;23;20260;-82
2023/12/22 06:01:54;;;;;;;10.13;2.38;;;;;;;;;;6193041;23;20039;-83
2023/12/22 06:04:40;;;;;;;11.60;2.60;;;;;;;;;;6212415;23;20003;-80
2023/12/22 06:07:26;;;;;;;10.27;2.25;;;;;;;;;;6214219;23;20227;-82
2023/12/22 06:10:11;;;;;;;9.38;2.88;;;;;;;;;;6210207;23;20003;-83
2023/12/22 06:12:57;;;;;;;7.75;2.42;;;;;;;;;;6214794;23;20015;-82
2023/12/22 06:15:43;;;;;;;9.52;2.38;;;;;;;;;;6214950;23;20004;-84
2023/12/22 06:18:28;;;;;;;8.45;3.13;;;;;;;;;;6215061;23;20083;-83
2023/12/22 06:21:15;;;;;;;8.05;2.60;;;;;;;;;;6215485;23;20198;-83
2023/12/22 06:24:00;;;;;;;12.07;2.60;;;;;;;;;;6214949;23;20011;-83
2023/12/22 06:26:45;;;;;;;11.82;2.17;;;;;;;;;;6214524;23;19999;-81
2023/12/22 06:29:31;;;;;;;9.82;1.73;;;;;;;;;;6215014;23;19996;-82
2023/12/22 06:32:17;;;;;;;9.57;2.40;;;;;;;;;;6215009;23;20444;-82
2023/12/22 06:35:02;;;;;;;9.70;2.30;;;;;;;;;;6214790;23;20082;-82
2023/12/22 06:37:47;;;;;;;10.60;2.58;;;;;;;;;;6214296;23;20120;-84
2023/12/22 06:40:34;;;;;;;14.25;2.40;;;;;;;;;;6214997;23;20000;-82
2023/12/22 06:43:19;;;;;;;10.98;2.42;;;;;;;;;;6214843;23;20004;-83
2023/12/22 06:46:13;;;;;;;13.00;2.65;;;;;;;;;;6215158;23;19996;-83
2023/12/22 06:49:02;;;;;;;10.07;2.28;;;;;;;;;;6213247;23;19999;-81
2023/12/22 06:51:50;;;;;;;5.75;1.90;;;;;;;;;;6210727;23;19996;-82
2023/12/22 06:54:35;;;;;;;7.32;2.30;;;;;;;;;;6213437;23;20351;-84
2023/12/22 06:57:21;;;;;;;6.38;1.60;;;;;;;;;;6215245;23;19997;-84
2023/12/22 07:00:07;;;;;;;11.38;2.30;;;;;;;;;;6214963;23;20061;-84
2023/12/22 07:02:52;;;;;;;8.02;3.03;;;;;;;;;;6213806;23;20083;-82
2023/12/22 07:05:37;;;;;;;10.48;2.22;;;;;;;;;;6213405;23;19998;-82
2023/12/22 07:08:23;;;;;;;10.50;3.10;;;;;;;;;;6216103;23;20100;-83
2023/12/22 07:11:08;;;;;;;3.47;1.55;;;;;;;;;;6225719;23;20019;-79
2023/12/22 07:13:54;;;;;;;8.48;2.42;;;;;;;;;;6232595;23;20026;-81
2023/12/22 07:16:39;;;;;;;6.60;1.98;;;;;;;;;;6237448;23;20032;-82
2023/12/22 07:19:24;;;;;;;6.53;2.20;;;;;;;;;;6241744;23;19984;-82
2023/12/22 07:22:08;;;;;;;12.25;1.98;;;;;;;;;;6258447;23;20019;-82
2023/12/22 07:24:55;;;;;;;9.77;2.33;;;;;;;;;;6239249;23;20008;-82
2023/12/22 07:27:40;;;;;;;7.90;2.22;;;;;;;;;;6238883;23;20052;-82
2023/12/22 07:30:25;;;;;;;7.30;2.50;;;;;;;;;;6238066;23;20046;-82
2023/12/22 07:33:11;;;;;;;5.72;1.73;;;;;;;;;;6244899;23;20000;-83
2023/12/22 07:35:56;;;;;;;10.23;1.90;;;;;;;;;;6219909;23;20003;-82
2023/12/22 07:38:41;;;;;;;6.30;2.30;;;;;;;;;;6220159;23;20007;-82
2023/12/22 07:41:27;;;;;;;8.25;2.25;;;;;;;;;;6221508;23;20035;-81
2023/12/22 07:44:12;;;;;;;11.93;2.63;;;;;;;;;;6214999;23;20229;-82
2023/12/22 07:46:58;;;;;;;9.48;2.65;;;;;;;;;;6214288;23;20433;-82
2023/12/22 07:49:44;;;;;;;7.03;2.20;;;;;;;;;;6214034;23;20428;-82
2023/12/22 07:52:29;;;;;;;12.25;4.25;;;;;;;;;;6213586;23;20027;-81
2023/12/22 07:55:14;;;;;;;5.63;1.67;;;;;;;;;;6213885;23;20563;-81
2023/12/22 07:57:59;;;;;;;8.38;1.88;;;;;;;;;;6213772;23;19996;-81
2023/12/22 08:00:46;;;;;;;4.75;1.63;;;;;;;;;;6213588;23;19996;-82
2023/12/22 08:03:32;;;;;;;7.93;1.83;;;;;;;;;;6214345;23;20000;-81
2023/12/22 08:06:17;;;;;;;7.65;1.80;;;;;;;;;;6213774;23;19996;-80
2023/12/22 08:09:02;;;;;;;5.38;1.65;;;;;;;;;;6235752;23;20065;-84
2023/12/22 08:11:52;;;;;;;8.43;2.28;;;;;;;;;;6214010;23;20035;-81
2023/12/22 08:14:37;;;;;;;9.20;1.92;;;;;;;;;;6214707;23;20372;-84
2023/12/22 08:17:22;;;;;;;7.78;2.22;;;;;;;;;;6213551;23;20000;-84
2023/12/22 08:20:08;;;;;;;4.95;1.50;;;;;;;;;;6214526;23;20000;-80
2023/12/22 08:22:53;;;;;;;7.30;1.77;;;;;;;;;;6213813;23;20073;-82
2023/12/22 08:25:41;;;;;;;8.63;1.70;;;;;;;;;;6214085;23;20395;-82
2023/12/22 08:28:26;;;;;;;7.18;1.88;;;;;;;;;;6213369;23;19996;-82
2023/12/22 08:31:12;;;;;;;14.45;2.60;;;;;;;;;;6214196;23;20007;-82
2023/12/22 08:33:57;;;;;;;10.85;3.00;;;;;;;;;;6213927;23;19996;-82
2023/12/22 08:36:43;;;;;;;7.20;2.70;;;;;;;;;;6214728;23;20346;-83
2023/12/22 08:39:28;;;;;;;8.40;2.33;;;;;;;;;;6193213;23;20012;-82
2023/12/22 08:42:14;;;;;;;8.48;2.58;;;;;;;;;;6215907;23;20000;-82
2023/12/22 08:44:59;;;;;;;9.82;2.45;;;;;;;;;;6216683;23;20006;-83
2023/12/22 08:47:44;;;;;;;10.00;3.70;;;;;;;;;;6215246;23;19992;-83
2023/12/22 08:50:29;;;;;;;12.50;2.97;;;;;;;;;;6215543;23;20000;-83
2023/12/22 08:53:14;;;;;;;9.25;2.30;;;;;;;;;;6215341;23;19996;-81
2023/12/22 08:56:00;;;;;;;10.23;2.22;;;;;;;;;;6215594;23;19996;-82
2023/12/22 08:58:45;;;;;;;10.30;2.08;;;;;;;;;;6215674;23;20008;-81
2023/12/22 09:01:30;;;;;;;9.63;2.63;;;;;;;;;;6216007;23;20083;-81
2023/12/22 09:04:16;;;;;;;6.70;1.95;;;;;;;;;;6215505;23;20008;-81
2023/12/22 09:07:01;;;;;;;8.43;3.38;;;;;;;;;;6216053;23;20007;-81
2023/12/22 09:09:46;;;;;;;8.50;2.53;;;;;;;;;;6215019;22;20086;-81
2023/12/22 09:12:31;;;;;;;12.70;2.90;;;;;;;;;;6215168;23;20016;-81
2023/12/22 09:15:16;;;;;;;22.55;3.85;;;;;;;;;;6215122;23;20088;-80
2023/12/22 09:18:02;;;;;;;16.63;3.88;;;;;;;;;;6214988;23;20000;-81
2023/12/22 09:20:47;;;;;;;12.05;2.63;;;;;;;;;;6216022;23;20018;-81
2023/12/22 09:23:33;;;;;;;15.63;3.22;;;;;;;;;;6215571;23;20000;-82
2023/12/22 09:26:18;;;;;;;10.60;3.47;;;;;;;;;;6215564;23;20000;-82
2023/12/22 09:29:04;;;;;;;17.25;3.38;;;;;;;;;;6215185;23;20090;-82
2023/12/22 09:31:50;;;;;;;11.68;4.90;;;;;;;;;;6215329;23;20075;-83
2023/12/22 09:34:35;;;;;;;14.73;3.05;;;;;;;;;;6194350;23;20452;-82
2023/12/22 09:37:20;;;;;;;14.10;2.90;;;;;;;;;;6215545;23;19996;-82
2023/12/22 09:40:09;;;;;;;14.95;3.15;;;;;;;;;;6215905;23;20383;-83
2023/12/22 09:42:55;;;;;;;16.58;3.55;;;;;;;;;;6215142;23;20000;-81
2023/12/22 09:45:41;;;;;;;20.98;5.45;;;;;;;;;;6216139;23;20000;-83
2023/12/22 09:48:29;;;;;;;17.75;4.60;;;;;;;;;;6216605;23;19997;-83
2023/12/22 09:51:16;;;;;;;12.73;3.83;;;;;;;;;;6216952;23;19998;-83
2023/12/22 09:54:02;;;;;;;17.55;4.82;;;;;;;;;;6215068;23;20027;-81
2023/12/22 09:56:48;;;;;;;16.25;4.22;;;;;;;;;;6218100;23;20010;-82
2023/12/22 09:59:33;;;;;;;15.05;4.03;;;;;;;;;;6215517;23;20035;-83
2023/12/22 10:02:19;;;;;;;17.05;3.85;;;;;;;;;;6215491;23;20004;-82
2023/12/22 10:05:04;;;;;;;16.00;3.65;;;;;;;;;;6214619;23;20421;-82
2023/12/22 10:07:50;;;;;;;9.98;2.90;;;;;;;;;;6236108;23;20428;-82
2023/12/22 10:10:37;;;;;;;16.08;5.15;;;;;;;;;;6214440;23;19992;-82
2023/12/22 10:13:23;;;;;;;10.77;2.67;;;;;;;;;;6214646;23;20024;-81
2023/12/22 10:16:08;;;;;;;16.38;4.53;;;;;;;;;;6215365;23;20209;-81
2023/12/22 10:18:53;;;;;;;17.63;3.90;;;;;;;;;;6237120;23;19996;-81
2023/12/22 10:21:38;;;;;;;16.45;4.05;;;;;;;;;;6212303;23;20404;-80
2023/12/22 10:24:43;;;;;;;18.95;3.53;;;;;;;;;;6213860;23;20093;-80
2023/12/22 10:27:28;;;;;;;12.38;3.30;;;;;;;;;;6214403;23;20197;-80
2023/12/22 10:30:14;;;;;;;21.88;5.68;;;;;;;;;;6214668;23;20011;-80
2023/12/22 10:33:03;;;;;;;15.45;3.65;;;;;;;;;;6214862;23;20094;-80
2023/12/22 10:35:50;;;;;;;15.77;3.80;;;;;;;;;;6214188;23;20004;-82
2023/12/22 10:38:35;;;;;;;9.57;3.17;;;;;;;;;;6213913;23;20024;-79
2023/12/22 10:41:20;;;;;;;13.82;3.97;;;;;;;;;;6214275;23;20079;-81
2023/12/22 10:44:06;;;;;;;13.77;3.13;;;;;;;;;;6193129;23;20010;-82
2023/12/22 10:46:52;;;;;;;12.60;3.08;;;;;;;;;;6215317;23;20583;-82
2023/12/22 10:49:37;;;;;;;8.75;3.08;;;;;;;;;;6213984;23;20012;-84
2023/12/22 10:52:23;;;;;;;13.63;3.00;;;;;;;;;;6214509;23;20034;-83
2023/12/22 10:55:08;;;;;;;10.95;3.35;;;;;;;;;;6214139;23;20004;-83
2023/12/22 10:57:54;;;;;;;17.45;3.10;;;;;;;;;;6214122;23;20000;-83
2023/12/22 11:00:41;;;;;;;11.63;2.45;;;;;;;;;;6193104;23;20042;-83
2023/12/22 11:03:27;;;;;;;8.65;2.30;;;;;;;;;;6214350;23;20053;-82
2023/12/22 11:06:14;;;;;;;5.43;1.55;;;;;;;;;;6214487;23;19996;-82
2023/12/22 11:09:00;;;;;;;8.95;2.00;;;;;;;;;;6215015;23;20034;-83
2023/12/22 11:11:46;;;;;;;6.43;2.00;;;;;;;;;;6214843;23;20364;-82
2023/12/22 11:14:32;;;;;;;8.88;2.10;;;;;;;;;;6213739;23;20544;-82
2023/12/22 11:17:21;;;;;;;7.03;1.90;;;;;;;;;;6215176;23;19996;-82
2023/12/22 11:20:09;;;;;;;8.57;2.38;;;;;;;;;;6214078;23;20008;-81
2023/12/22 11:22:55;;;;;;;4.05;1.38;;;;;;;;;;6214756;23;20026;-81
2023/12/22 11:25:40;;;;;;;5.07;1.65;;;;;;;;;;6214284;23;20412;-82
2023/12/22 11:28:25;;;;;;;2.97;1.45;;;;;;;;;;6214373;23;20337;-81
2023/12/22 11:31:11;;;;;;;7.72;2.03;;;;;;;;;;6214617;23;20385;-80
2023/12/22 11:33:58;;;;;;;5.43;1.80;;;;;;;;;;6214100;23;20004;-82
2023/12/22 11:36:45;;;;;;;5.15;1.52;;;;;;;;;;6213990;23;20083;-82
2023/12/22 11:39:30;;;;;;;10.02;2.05;;;;;;;;;;6214066;23;19996;-82
2023/12/22 11:42:21;;;;;;;5.72;1.60;;;;;;;;;;6213749;23;20014;-82
2023/12/22 11:45:09;;;;;;;2.20;1.33;;;;;;;;;;6213945;23;19996;-82
2023/12/22 11:47:54;;;;;;;9.05;2.40;;;;;;;;;;6213279;23;20007;-81
2023/12/22 11:50:39;;;;;;;6.03;2.10;;;;;;;;;;6213293;23;19997;-84
2023/12/22 11:53:29;;;;;;;2.38;1.45;;;;;;;;;;6213959;23;20007;-84
2023/12/22 11:56:18;;;;;;;4.95;1.42;;;;;;;;;;6213524;23;20004;-84
2023/12/22 11:59:03;;;;;;;7.70;1.10;;;;;;;;;;6211394;23;20077;-83
2023/12/22 12:01:54;;;;;;;5.65;1.73;;;;;;;;;;6211524;23;20081;-82
2023/12/22 12:04:39;;;;;;;2.88;1.48;;;;;;;;;;6213510;23;20008;-82
2023/12/22 12:07:41;;;;;;;4.90;1.30;;;;;;;;;;6214214;23;20079;-82
2023/12/22 12:10:32;;;;;;;5.13;1.17;;;;;;;;;;6214067;23;20482;-83
2023/12/22 12:13:21;;;;;;;2.45;1.27;;;;;;;;;;6213161;23;20032;-82
2023/12/22 12:16:07;;;;;;;2.88;1.27;;;;;;;;;;6209912;23;20429;-82
2023/12/22 12:18:52;;;;;;;2.45;1.42;;;;;;;;;;6211699;23;20003;-82
2023/12/22 12:21:39;;;;;;;8.02;1.67;;;;;;;;;;6213610;23;20008;-81
2023/12/22 12:24:25;;;;;;;2.35;1.20;;;;;;;;;;6213566;23;20004;-83
2023/12/22 12:27:10;;;;;;;3.85;1.50;;;;;;;;;;6213296;23;20000;-82
2023/12/22 12:29:56;;;;;;;3.85;1.35;;;;;;;;;;6213143;23;20004;-80
2023/12/22 12:32:42;;;;;;;4.15;1.58;;;;;;;;;;6213821;23;20026;-83
2023/12/22 12:35:29;;;;;;;8.45;2.03;;;;;;;;;;6213886;23;20000;-82
2023/12/22 12:38:17;;;;;;;4.90;1.10;;;;;;;;;;6214076;23;20058;-82
2023/12/22 12:41:03;;;;;;;4.43;1.17;;;;;;;;;;6214294;23;20376;-82
2023/12/22 12:43:49;;;;;;;2.65;0.95;;;;;;;;;;6213315;23;20007;-82
2023/12/22 12:46:35;;;;;;;2.30;1.00;;;;;;;;;;6193463;23;19992;-83
2023/12/22 12:49:20;;;;;;;2.85;1.10;;;;;;;;;;6213196;23;20011;-82
2023/12/22 12:52:11;;;;;;;3.42;1.10;;;;;;;;;;6211162;23;20090;-83
2023/12/22 12:54:58;;;;;;;1.70;1.10;;;;;;;;;;6213204;23;20043;-82
2023/12/22 12:57:43;;;;;;;3.47;0.85;;;;;;;;;;6212998;23;20026;-81
2023/12/22 13:00:32;;;;;;;3.50;1.00;;;;;;;;;;6212604;23;20058;-82
2023/12/22 13:03:17;;;;;;;2.35;0.82;;;;;;;;;;6213263;23;20000;-82
2023/12/22 13:06:06;;;;;;;1.30;1.00;;;;;;;;;;6213739;23;20247;-84
2023/12/22 13:08:52;;;;;;;2.70;1.10;;;;;;;;;;6213205;23;20363;-83
2023/12/22 13:11:37;;;;;;;2.67;1.10;;;;;;;;;;6211699;23;20050;-81
2023/12/22 13:14:26;;;;;;;1.52;0.85;;;;;;;;;;6212582;23;20083;-80
2023/12/22 13:17:11;;;;;;;4.68;1.10;;;;;;;;;;6212886;23;20031;-84
2023/12/22 13:19:57;;;;;;;2.15;0.90;;;;;;;;;;6213910;23;20075;-82
2023/12/22 13:22:42;;;;;;;1.90;0.98;;;;;;;;;;6214325;23;20174;-83
2023/12/22 13:25:37;;;;;;;2.90;0.93;;;;;;;;;;6213562;23;20095;-82
2023/12/22 13:28:26;;;;;;;1.80;0.88;;;;;;;;;;6215164;23;19996;-83
2023/12/22 13:31:16;;;;;;;1.23;0.77;;;;;;;;;;6214929;23;19992;-83
2023/12/22 13:34:02;;;;;;;1.17;0.70;;;;;;;;;;6214958;23;20437;-83
2023/12/22 13:36:47;;;;;;;1.10;0.73;;;;;;;;;;6210389;23;20103;-83
2023/12/22 13:39:32;;;;;;;3.35;0.70;;;;;;;;;;6212311;23;20065;-82
2023/12/22 13:42:19;;;;;;;0.80;0.60;;;;;;;;;;6213838;23;20475;-81
2023/12/22 13:45:09;;;;;;;3.60;1.17;;;;;;;;;;6212782;23;20333;-82
2023/12/22 13:47:55;;;;;;;0.82;0.60;;;;;;;;;;6215619;23;20316;-82
2023/12/22 13:50:40;;;;;;;0.75;0.57;;;;;;;;;;6214933;23;20007;-81
2023/12/22 13:53:26;;;;;;;0.47;0.47;;;;;;;;;;6215002;23;20399;-83
2023/12/22 13:56:12;;;;;;;2.63;1.13;;;;;;;;;;6209745;23;20000;-82
2023/12/22 13:58:57;;;;;;;0.57;0.57;;;;;;;;;;6214815;23;20032;-81
2023/12/22 14:01:45;;;;;;;2.13;0.80;;;;;;;;;;6214953;23;20429;-81
2023/12/22 14:04:32;;;;;;;1.10;0.60;;;;;;;;;;6215085;23;20000;-81
2023/12/22 14:07:18;;;;;;;0.85;0.60;;;;;;;;;;6213000;23;20018;-80
2023/12/22 14:10:07;;;;;;;1.35;0.70;;;;;;;;;;6214985;22;20058;-80
2023/12/22 14:12:52;;;;;;;1.65;0.60;;;;;;;;;;6211559;23;20544;-78
2023/12/22 14:15:37;;;;;;;0.50;0.50;;;;;;;;;;6212252;23;20031;-78
2023/12/22 14:18:22;;;;;;;2.30;0.80;;;;;;;;;;6214514;23;19996;-78
2023/12/22 14:21:07;;;;;;;0.47;0.47;;;;;;;;;;6214809;23;19992;-80
2023/12/22 14:23:52;;;;;;;0.57;0.57;;;;;;;;;;6214827;23;20079;-81
2023/12/22 14:26:54;;;;;;;0.57;0.57;;;;;;;;;;6215025;23;20363;-80
2023/12/22 14:29:42;;;;;;;0.40;0.40;;;;;;;;;;6214805;23;20705;-80
2023/12/22 14:32:29;;;;;;;0.57;0.57;;;;;;;;;;6213178;23;20008;-79
2023/12/22 14:35:14;;;;;;;0.60;0.60;;;;;;;;;;6215352;23;20826;-79
2023/12/22 14:38:00;;;;;;;0.80;0.80;;;;;;;;;;6214621;23;20057;-83
2023/12/22 14:40:45;;;;;;;0.55;0.55;;;;;;;;;;6214761;23;20362;-83
2023/12/22 14:43:30;;;;;;;0.50;0.50;;;;;;;;;;6214436;23;20408;-81
2023/12/22 14:46:15;;;;;;;0.82;0.77;;;;;;;;;;6214063;23;20019;-80
2023/12/22 14:49:01;;;;;;;0.70;0.70;;;;;;;;;;6216685;23;20317;-85
2023/12/22 14:51:51;;;;;;;2.55;1.63;;;;;;;;;;6236632;23;19992;-85
2023/12/22 14:54:36;;;;;;;2.95;1.10;;;;;;;;;;6214364;23;20311;-85
2023/12/22 14:57:22;;;;;;;2.83;0.80;;;;;;;;;;6216323;23;20004;-80
2023/12/22 15:00:09;;;;;;;0.70;0.70;;;;;;;;;;6217399;23;20000;-82
2023/12/22 15:02:54;;;;;;;1.17;0.65;;;;;;;;;;6216844;23;20011;-82
2023/12/22 15:05:39;;;;;;;0.60;0.60;;;;;;;;;;6216147;23;20000;-81
2023/12/22 15:08:25;;;;;;;0.60;0.60;;;;;;;;;;6215811;23;20030;-80
2023/12/22 15:11:10;;;;;;;0.75;0.70;;;;;;;;;;6218314;23;20360;-80
2023/12/22 15:13:55;;;;;;;0.65;0.60;;;;;;;;;;6218212;23;20123;-79
2023/12/22 15:16:44;;;;;;;1.15;0.80;;;;;;;;;;6230633;23;20058;-79
2023/12/22 15:19:29;;;;;;;0.88;0.70;;;;;;;;;;6225477;23;20000;-78
2023/12/22 15:22:15;;;;;;;0.60;0.60;;;;;;;;;;6188022;23;20001;-79
2023/12/22 15:24:59;;;;;;;1.13;0.80;;;;;;;;;;6197313;23;20008;-78
2023/12/22 15:27:44;;;;;;;1.50;0.73;;;;;;;;;;6185695;23;19993;-79
2023/12/22 15:30:30;;;;;;;0.60;0.60;;;;;;;;;;6188122;23;20059;-79
2023/12/22 15:33:16;;;;;;;0.95;0.70;;;;;;;;;;6184854;23;20397;-82
2023/12/22 15:36:01;;;;;;;0.60;0.60;;;;;;;;;;6183093;23;20008;-82
2023/12/22 15:38:47;;;;;;;1.40;0.63;;;;;;;;;;6176031;23;20055;-82
2023/12/22 15:41:32;;;;;;;0.85;0.60;;;;;;;;;;6191061;23;20092;-82
2023/12/22 15:44:17;;;;;;;1.58;1.20;;;;;;;;;;6221300;23;20014;-83
2023/12/22 15:47:02;;;;;;;1.90;0.90;;;;;;;;;;6219362;23;20080;-82
2023/12/22 15:49:48;;;;;;;1.38;0.98;;;;;;;;;;6217266;23;20000;-80
2023/12/22 15:52:33;;;;;;;2.42;1.00;;;;;;;;;;6217756;23;20437;-82
2023/12/22 15:55:18;;;;;;;1.80;0.90;;;;;;;;;;6234770;23;20039;-81
2023/12/22 15:58:03;;;;;;;5.88;2.50;;;;;;;;;;6217755;23;19996;-81
2023/12/22 16:03:51;;;;;;;6.38;1.80;;;;;;;;;;6240377;23;20065;-81
2023/12/22 16:06:37;;;;;;;2.72;1.17;;;;;;;;;;6217929;23;20039;-80
2023/12/22 16:09:25;;;;;;;2.20;1.10;;;;;;;;;;6240579;22;20019;-81
2023/12/22 16:12:10;;;;;;;3.00;1.70;;;;;;;;;;6215204;23;20102;-81
2023/12/22 16:14:57;;;;;;;0.85;0.70;;;;;;;;;;6218257;23;19993;-81
2023/12/22 16:17:43;;;;;;;5.65;1.60;;;;;;;;;;6217836;23;20050;-80
2023/12/22 16:20:29;;;;;;;2.83;1.00;;;;;;;;;;6218030;23;19996;-80
2023/12/22 16:23:14;;;;;;;2.10;0.90;;;;;;;;;;6217679;23;20000;-81
2023/12/22 16:26:00;;;;;;;1.23;0.60;;;;;;;;;;6217705;23;20033;-80
2023/12/22 16:28:45;;;;;;;0.70;0.70;;;;;;;;;;6217465;23;20004;-80
2023/12/22 16:31:31;;;;;;;0.82;0.80;;;;;;;;;;6218041;23;19998;-80
2023/12/22 16:34:16;;;;;;;0.70;0.70;;;;;;;;;;6217453;23;20058;-80
2023/12/22 16:37:01;;;;;;;0.70;0.70;;;;;;;;;;6239487;23;20058;-79
2023/12/22 16:39:50;;;;;;;0.50;0.50;;;;;;;;;;6217578;23;20046;-80